NCAR-RAP Real-Time Weather Data

Output produced by METARs form (19 June 2019  10:57 UTC)
found at http://weather.rap.ucar.edu/surface/
 
KACY 190954Z 00000KT 10SM OVC095 22/21 A2986 RMK AO2 SLP109 T02220206
KACY 190854Z 29003KT 10SM OVC100 22/21 A2986 RMK AO2 RAE13 SLP110 P0002 60003 T02220206 58008
KACY 190806Z 23004KT 7SM -RA SCT005 BKN050 OVC075 22/21 A2987 RMK AO2 P0002 T02220206
KACY 190754Z 23006KT 4SM RA BR FEW041 SCT055 BKN075 22/21 A2987 RMK AO2 RAE21B50 SLP114 P0001 T02220206
KACY 190654Z 23005KT 10SM -RA FEW110 22/20 A2987 RMK AO2 RAB23 SLP115 P0000 T02220200
KACY 190554Z 24006KT 10SM SCT095 22/20 A2988 RMK AO2 SLP118 60008 T02220200 10283 20222 55007
KACY 190454Z 21005KT 10SM BKN110 23/21 A2988 RMK AO2 RAE0356 SLP117 P0000 T02280206 403000211
KACY 190354Z 25005KT 10SM -RA OVC070 23/21 A2990 RMK AO2 RAB09 SLP124 P0008 T02330211
KACY 190254Z 24008KT 10SM FEW042 SCT060 BKN120 26/21 A2990 RMK AO2 LTG DSNT S SLP125 T02560211 53019